Mary Bennett — WDC4592 — position and weather

sailwx.info

Track history (hours):
 
Tides and Currents Weather Stations Pressure Air Temp Water Temp Dewpoint Dewpoint Depression Visibility Wind Speed Wind Dir Waves Ship Positions

Mary Bennett

Owner: Savannah Marine Services, Savannah, GA. More information available from US FCC via Universal Licensing System and Coast Guard Vessel Documentation Center.

Last reported at 2016-May-26 12:33 UTC. Time now 2016-May-26 12:38 UTC.
Position N 32°07' W 081°08'.

Length 21 m; draft 2.3 m.

Type: Tug. MMSI: 367027140.

Date/timePositionNaut miles runAvg speedWind from/ knotsBaromVisibWave heightAir tempDewpointWater temp
2016-May-26 12:33N 32°07' W 081°08'0 0.1
2016-May-26 11:34N 32°07' W 081°08'0 0.2
2016-May-26 10:27N 32°07' W 081°08'0 0.0
2016-May-26 09:33N 32°07' W 081°08'0 0.0
2016-May-26 08:33N 32°07' W 081°08'0 0.1
2016-May-26 07:33N 32°07' W 081°08'0 0.1
2016-May-26 06:33N 32°07' W 081°08'0 0.3
2016-May-26 05:33N 32°07' W 081°08'0 0.3
2016-May-26 04:33N 32°07' W 081°08'0 0.2
2016-May-26 03:33N 32°07' W 081°08'0 0.2
2016-May-26 02:33N 32°07' W 081°08'0 0.0
2016-May-26 01:33N 32°07' W 081°08'0 0.0
2016-May-26 00:33N 32°07' W 081°08'2 2.4
2016-May-25 23:33N 32°05' W 081°06'2 2.4
2016-May-25 22:33N 32°05' W 081°03'0 0.1
2016-May-25 21:33N 32°05' W 081°03'0 0.0
2016-May-25 20:33N 32°05' W 081°03'1 1.2
2016-May-25 19:33N 32°05' W 081°04'4 3.5
2016-May-25 18:34N 32°07' W 081°08'0 0.0
2016-May-25 17:33N 32°07' W 081°08'0 0.0
2016-May-25 16:34N 32°07' W 081°08'0 0.0
2016-May-25 15:34N 32°07' W 081°08'0 0.0
2016-May-25 14:34N 32°07' W 081°08'0 0.1
2016-May-25 13:33N 32°07' W 081°08'3 2.5
2016-May-25 12:33N 32°05' W 081°06'2 2.3
2016-May-25 11:34N 32°05' W 081°03'2 2.3
2016-May-25 10:34N 32°05' W 081°06'2 2.4
2016-May-25 09:33N 32°07' W 081°08'0 0.2
2016-May-25 08:33N 32°07' W 081°08'0 0.2
2016-May-25 07:34N 32°07' W 081°08'0 0.0
2016-May-25 06:33N 32°07' W 081°08'0 0.1
2016-May-25 05:34N 32°07' W 081°08'0 0.2
2016-May-25 04:34N 32°07' W 081°08'0 0.2
2016-May-25 03:34N 32°07' W 081°08'1 0.8
2016-May-25 02:34N 32°06' W 081°07'2 1.5
2016-May-25 01:34N 32°05' W 081°06'0 0.0
2016-May-25 00:34N 32°05' W 081°06'0 0.0
2016-May-24 23:33N 32°05' W 081°06'0 0.0
2016-May-24 22:34N 32°05' W 081°06'2 2.3
2016-May-24 21:34N 32°07' W 081°08'0 0.1
2016-May-24 20:33N 32°07' W 081°08'0 0.0
2016-May-24 19:34N 32°07' W 081°08'0 0.0
2016-May-24 18:34N 32°07' W 081°08'0 0.0
2016-May-24 17:33N 32°07' W 081°08'0 0.0
2016-May-24 16:33N 32°07' W 081°08'0 0.0
2016-May-24 15:34N 32°07' W 081°08'0 0.0
2016-May-24 14:34N 32°07' W 081°08'0 0.0
2016-May-24 13:34N 32°07' W 081°08'0 0.0
2016-May-24 12:33N 32°07' W 081°08'0 0.0
2016-May-24 11:34N 32°07' W 081°08'0 0.1
2016-May-24 10:33N 32°07' W 081°08'0 0.1
2016-May-24 09:33N 32°07' W 081°08'0 0.1
2016-May-24 08:34N 32°07' W 081°08'0 0.1
2016-May-24 07:34N 32°07' W 081°08'0 0.1
2016-May-24 06:34N 32°07' W 081°08'0 0.2
2016-May-24 05:34N 32°07' W 081°08'0 0.0
2016-May-24 04:33N 32°07' W 081°08'2 1.7
2016-May-24 03:34N 32°06' W 081°06'1 0.5
2016-May-24 02:34N 32°05' W 081°06'0 0.0
2016-May-24 01:33N 32°05' W 081°06'0 0.0
2016-May-24 00:34N 32°05' W 081°06'0 0.0
2016-May-23 23:34N 32°05' W 081°06'0 0.0
2016-May-23 22:33N 32°05' W 081°06'0 0.0
2016-May-23 21:34N 32°05' W 081°06'0 0.0
2016-May-23 20:34N 32°05' W 081°06'0 0.0
2016-May-23 19:34N 32°05' W 081°06'0 0.0
2016-May-23 18:33N 32°05' W 081°06'0 0.0
2016-May-23 17:34N 32°05' W 081°06'0 0.0
2016-May-23 16:34N 32°05' W 081°06'0 0.0
2016-May-23 15:33N 32°05' W 081°06'0 0.0
2016-May-23 14:34N 32°05' W 081°06'1 0.8
2016-May-23 13:33N 32°06' W 081°06'1 0.8
2016-May-23 12:33N 32°05' W 081°06'6 6.1
2016-May-23 11:34N 32°04' W 080°58'4 4.0
2016-May-23 10:33N 32°01' W 081°01'5 5.2
2016-May-23 09:34N 31°57' W 081°04'5 4.8
2016-May-23 08:34N 31°52' W 081°05'5 4.5
2016-May-23 07:34N 31°50' W 081°10'6 4.7
2016-May-23 06:21N 31°44' W 081°09'5 6.7
2016-May-23 05:33N 31°39' W 081°11'5 5.1
2016-May-23 04:29N 31°34' W 081°12'19 0.4
2016-May-21 08:20N 31°44' W 080°53'7 8.3
2016-May-21 07:33N 31°50' W 080°50'8 8.5
2016-May-21 06:33N 31°58' W 080°47'8 8.2
2016-May-21 05:33N 32°02' W 080°55'8 8.2
2016-May-21 04:33N 32°05' W 081°04'1 1.3
2016-May-21 03:33N 32°05' W 081°06'0 0.3
2016-May-21 02:33N 32°05' W 081°06'0 0.4
2016-May-21 01:33N 32°05' W 081°06'0 0.3
2016-May-21 00:33N 32°05' W 081°06'0 0.1
2016-May-20 23:33N 32°05' W 081°06'0 0.1
2016-May-20 22:33N 32°05' W 081°06'0 0.3
2016-May-20 21:33N 32°05' W 081°06'0 0.1
2016-May-20 20:33N 32°05' W 081°06'0 0.1
2016-May-20 19:33N 32°05' W 081°06'0 0.3
2016-May-20 18:33N 32°05' W 081°05'0 0.0
2016-May-20 17:33N 32°05' W 081°05'1 0.5
2016-May-20 16:33N 32°05' W 081°06'0 0.2
2016-May-20 15:33N 32°06' W 081°06'0 0.1
2016-May-20 14:33N 32°06' W 081°06'0 0.0
2016-May-20 13:33N 32°06' W 081°06'0 0.2
2016-May-20 12:33N 32°05' W 081°06'0 0.2
2016-May-20 11:33N 32°06' W 081°06'0 0.2
2016-May-20 10:33N 32°05' W 081°06'0 0.4
2016-May-20 09:33N 32°06' W 081°06'0 0.0
2016-May-20 08:33N 32°06' W 081°06'0 0.1
2016-May-20 07:33N 32°06' W 081°06'0 0.1
2016-May-20 06:33N 32°06' W 081°06'0 0.1
2016-May-20 05:33N 32°06' W 081°06'0 0.1
2016-May-20 04:33N 32°06' W 081°06'0 0.2
2016-May-20 03:33N 32°05' W 081°06'0 0.1
2016-May-20 02:33N 32°05' W 081°06'0 0.0
2016-May-20 01:33N 32°05' W 081°06'0 0.0
2016-May-20 00:33N 32°05' W 081°06'0 0.1
2016-May-19 23:33N 32°05' W 081°06'0 0.0
2016-May-19 22:33N 32°05' W 081°06'0 0.1
2016-May-19 20:03N 32°05' W 081°06'2 4.6
2016-May-19 19:33N 32°05' W 081°03'0 0.3
2016-May-19 18:33N 32°05' W 081°03'0 0.1
2016-May-19 17:34N 32°05' W 081°03'2 0.2
2016-May-19 07:17N 32°05' W 081°05'2 2.3
2016-May-19 06:33N 32°05' W 081°03'0 0.0
2016-May-19 05:34N 32°05' W 081°03'0 0.1
2016-May-19 04:33N 32°05' W 081°03'0 0.0
2016-May-19 03:34N 32°05' W 081°03'0 0.1
2016-May-19 02:33N 32°05' W 081°03'0 0.1
2016-May-19 01:34N 32°05' W 081°03'0 0.0
2016-May-19 00:34N 32°05' W 081°03'0 0.1
2016-May-18 23:33N 32°05' W 081°03'0 0.2
2016-May-18 22:33N 32°05' W 081°03'0 0.2
2016-May-18 21:33N 32°05' W 081°03'0 0.2
2016-May-18 20:33N 32°05' W 081°03'2 1.2
2016-May-18 18:33N 32°05' W 081°06'8 7.6
2016-May-18 17:33N 32°04' W 080°57'4 4.3
2016-May-18 16:33N 32°05' W 081°02'4 4.1
2016-May-18 15:33N 32°06' W 081°07'0 0.0
2016-May-18 14:33N 32°06' W 081°07'0 0.0
2016-May-18 13:33N 32°06' W 081°07'1 1.0
2016-May-18 12:33N 32°05' W 081°06'1 1.4
2016-May-18 11:33N 32°05' W 081°04'0 0.4
2016-May-18 10:33N 32°05' W 081°04'0 0.3
2016-May-18 09:33N 32°05' W 081°04'0 0.1
2016-May-18 08:34N 32°05' W 081°04'0 0.4
2016-May-18 07:33N 32°05' W 081°04'0 0.1
2016-May-18 06:33N 32°05' W 081°04'0 0.3
2016-May-18 05:33N 32°05' W 081°04'0 0.0
2016-May-18 04:33N 32°05' W 081°04'0 0.1
2016-May-18 03:33N 32°05' W 081°04'0 0.1
2016-May-18 02:33N 32°05' W 081°04'0 0.2
2016-May-18 01:21N 32°05' W 081°04'0 0.1
2016-May-18 00:33N 32°05' W 081°04'0 0.1
2016-May-17 23:33N 32°05' W 081°04'0 0.1
2016-May-17 22:33N 32°05' W 081°04'0 0.2
2016-May-17 21:33N 32°05' W 081°04'0 0.1
2016-May-17 20:33N 32°05' W 081°04'0 0.1
2016-May-17 19:33N 32°05' W 081°04'0 0.2
2016-May-17 18:33N 32°05' W 081°04'0 0.1
2016-May-17 17:33N 32°05' W 081°04'0 0.2
2016-May-17 16:33N 32°05' W 081°04'2 1.5
2016-May-17 15:33N 32°05' W 081°06'1 0.8
2016-May-17 14:33N 32°06' W 081°06'0 0.0
2016-May-17 13:33N 32°06' W 081°06'1 0.1
2016-May-17 01:14N 32°05' W 081°06'4 6.2
2016-May-17 00:33N 32°06' W 081°01'8 8.1
2016-May-16 23:33N 32°02' W 080°52'8 7.5
2016-May-16 22:33N 31°60' W 080°44'2 2.0
2016-May-16 21:33N 31°60' W 080°42'7 6.9
2016-May-16 20:33N 32°02' W 080°49'7 7.0
2016-May-16 19:34N 32°04' W 080°57'5 4.9
2016-May-16 18:33N 32°05' W 081°03'0 0.1
2016-May-16 17:33N 32°05' W 081°03'0 0.0
2016-May-16 16:33N 32°05' W 081°03'0 0.0
2016-May-16 15:33N 32°05' W 081°03'  
Track history (hours):
 
Tides and Currents Weather Stations Pressure Air Temp Water Temp Dewpoint Dewpoint Depression Visibility Wind Speed Wind Dir Waves Ship Positions

Mary Bennett

Owner: Savannah Marine Services, Savannah, GA. More information available from US FCC via Universal Licensing System and Coast Guard Vessel Documentation Center.

Last reported at 2016-May-26 12:33 UTC. Time now 2016-May-26 12:38 UTC.
Position N 32°07' W 081°08'.

Length 21 m; draft 2.3 m.

Type: Tug. MMSI: 367027140.

Date/timePositionNaut miles runAvg speedWind from/ knotsBaromVisibWave heightAir tempDewpointWater temp
2016-May-26 12:33N 32°07' W 081°08'0 0.1
2016-May-26 11:34N 32°07' W 081°08'0 0.2
2016-May-26 10:27N 32°07' W 081°08'0 0.0
2016-May-26 09:33N 32°07' W 081°08'0 0.0
2016-May-26 08:33N 32°07' W 081°08'0 0.1
2016-May-26 07:33N 32°07' W 081°08'0 0.1
2016-May-26 06:33N 32°07' W 081°08'0 0.3
2016-May-26 05:33N 32°07' W 081°08'0 0.3
2016-May-26 04:33N 32°07' W 081°08'0 0.2
2016-May-26 03:33N 32°07' W 081°08'0 0.2
2016-May-26 02:33N 32°07' W 081°08'0 0.0
2016-May-26 01:33N 32°07' W 081°08'0 0.0
2016-May-26 00:33N 32°07' W 081°08'2 2.4
2016-May-25 23:33N 32°05' W 081°06'2 2.4
2016-May-25 22:33N 32°05' W 081°03'0 0.1
2016-May-25 21:33N 32°05' W 081°03'0 0.0
2016-May-25 20:33N 32°05' W 081°03'1 1.2
2016-May-25 19:33N 32°05' W 081°04'4 3.5
2016-May-25 18:34N 32°07' W 081°08'0 0.0
2016-May-25 17:33N 32°07' W 081°08'0 0.0
2016-May-25 16:34N 32°07' W 081°08'0 0.0
2016-May-25 15:34N 32°07' W 081°08'0 0.0
2016-May-25 14:34N 32°07' W 081°08'0 0.1
2016-May-25 13:33N 32°07' W 081°08'3 2.5
2016-May-25 12:33N 32°05' W 081°06'2 2.3
2016-May-25 11:34N 32°05' W 081°03'2 2.3
2016-May-25 10:34N 32°05' W 081°06'2 2.4
2016-May-25 09:33N 32°07' W 081°08'0 0.2
2016-May-25 08:33N 32°07' W 081°08'0 0.2
2016-May-25 07:34N 32°07' W 081°08'0 0.0
2016-May-25 06:33N 32°07' W 081°08'0 0.1
2016-May-25 05:34N 32°07' W 081°08'0 0.2
2016-May-25 04:34N 32°07' W 081°08'0 0.2
2016-May-25 03:34N 32°07' W 081°08'1 0.8
2016-May-25 02:34N 32°06' W 081°07'2 1.5
2016-May-25 01:34N 32°05' W 081°06'0 0.0
2016-May-25 00:34N 32°05' W 081°06'0 0.0
2016-May-24 23:33N 32°05' W 081°06'0 0.0
2016-May-24 22:34N 32°05' W 081°06'2 2.3
2016-May-24 21:34N 32°07' W 081°08'0 0.1
2016-May-24 20:33N 32°07' W 081°08'0 0.0
2016-May-24 19:34N 32°07' W 081°08'0 0.0
2016-May-24 18:34N 32°07' W 081°08'0 0.0
2016-May-24 17:33N 32°07' W 081°08'0 0.0
2016-May-24 16:33N 32°07' W 081°08'0 0.0
2016-May-24 15:34N 32°07' W 081°08'0 0.0
2016-May-24 14:34N 32°07' W 081°08'0 0.0
2016-May-24 13:34N 32°07' W 081°08'0 0.0
2016-May-24 12:33N 32°07' W 081°08'0 0.0
2016-May-24 11:34N 32°07' W 081°08'0 0.1
2016-May-24 10:33N 32°07' W 081°08'0 0.1
2016-May-24 09:33N 32°07' W 081°08'0 0.1
2016-May-24 08:34N 32°07' W 081°08'0 0.1
2016-May-24 07:34N 32°07' W 081°08'0 0.1
2016-May-24 06:34N 32°07' W 081°08'0 0.2
2016-May-24 05:34N 32°07' W 081°08'0 0.0
2016-May-24 04:33N 32°07' W 081°08'2 1.7
2016-May-24 03:34N 32°06' W 081°06'1 0.5
2016-May-24 02:34N 32°05' W 081°06'0 0.0
2016-May-24 01:33N 32°05' W 081°06'0 0.0
2016-May-24 00:34N 32°05' W 081°06'0 0.0
2016-May-23 23:34N 32°05' W 081°06'0 0.0
2016-May-23 22:33N 32°05' W 081°06'0 0.0
2016-May-23 21:34N 32°05' W 081°06'0 0.0
2016-May-23 20:34N 32°05' W 081°06'0 0.0
2016-May-23 19:34N 32°05' W 081°06'0 0.0
2016-May-23 18:33N 32°05' W 081°06'0 0.0
2016-May-23 17:34N 32°05' W 081°06'0 0.0
2016-May-23 16:34N 32°05' W 081°06'0 0.0
2016-May-23 15:33N 32°05' W 081°06'0 0.0
2016-May-23 14:34N 32°05' W 081°06'1 0.8
2016-May-23 13:33N 32°06' W 081°06'1 0.8
2016-May-23 12:33N 32°05' W 081°06'6 6.1
2016-May-23 11:34N 32°04' W 080°58'4 4.0
2016-May-23 10:33N 32°01' W 081°01'5 5.2
2016-May-23 09:34N 31°57' W 081°04'5 4.8
2016-May-23 08:34N 31°52' W 081°05'5 4.5
2016-May-23 07:34N 31°50' W 081°10'6 4.7
2016-May-23 06:21N 31°44' W 081°09'5 6.7
2016-May-23 05:33N 31°39' W 081°11'5 5.1
2016-May-23 04:29N 31°34' W 081°12'19 0.4
2016-May-21 08:20N 31°44' W 080°53'7 8.3
2016-May-21 07:33N 31°50' W 080°50'8 8.5
2016-May-21 06:33N 31°58' W 080°47'8 8.2
2016-May-21 05:33N 32°02' W 080°55'8 8.2
2016-May-21 04:33N 32°05' W 081°04'1 1.3
2016-May-21 03:33N 32°05' W 081°06'0 0.3
2016-May-21 02:33N 32°05' W 081°06'0 0.4
2016-May-21 01:33N 32°05' W 081°06'0 0.3
2016-May-21 00:33N 32°05' W 081°06'0 0.1
2016-May-20 23:33N 32°05' W 081°06'0 0.1
2016-May-20 22:33N 32°05' W 081°06'0 0.3
2016-May-20 21:33N 32°05' W 081°06'0 0.1
2016-May-20 20:33N 32°05' W 081°06'0 0.1
2016-May-20 19:33N 32°05' W 081°06'0 0.3
2016-May-20 18:33N 32°05' W 081°05'0 0.0
2016-May-20 17:33N 32°05' W 081°05'1 0.5
2016-May-20 16:33N 32°05' W 081°06'0 0.2
2016-May-20 15:33N 32°06' W 081°06'0 0.1
2016-May-20 14:33N 32°06' W 081°06'0 0.0
2016-May-20 13:33N 32°06' W 081°06'0 0.2
2016-May-20 12:33N 32°05' W 081°06'0 0.2
2016-May-20 11:33N 32°06' W 081°06'0 0.2
2016-May-20 10:33N 32°05' W 081°06'0 0.4
2016-May-20 09:33N 32°06' W 081°06'0 0.0
2016-May-20 08:33N 32°06' W 081°06'0 0.1
2016-May-20 07:33N 32°06' W 081°06'0 0.1
2016-May-20 06:33N 32°06' W 081°06'0 0.1
2016-May-20 05:33N 32°06' W 081°06'0 0.1
2016-May-20 04:33N 32°06' W 081°06'0 0.2
2016-May-20 03:33N 32°05' W 081°06'0 0.1
2016-May-20 02:33N 32°05' W 081°06'0 0.0
2016-May-20 01:33N 32°05' W 081°06'0 0.0
2016-May-20 00:33N 32°05' W 081°06'0 0.1
2016-May-19 23:33N 32°05' W 081°06'0 0.0
2016-May-19 22:33N 32°05' W 081°06'0 0.1
2016-May-19 20:03N 32°05' W 081°06'2 4.6
2016-May-19 19:33N 32°05' W 081°03'0 0.3
2016-May-19 18:33N 32°05' W 081°03'0 0.1
2016-May-19 17:34N 32°05' W 081°03'2 0.2
2016-May-19 07:17N 32°05' W 081°05'2 2.3
2016-May-19 06:33N 32°05' W 081°03'0 0.0
2016-May-19 05:34N 32°05' W 081°03'0 0.1
2016-May-19 04:33N 32°05' W 081°03'0 0.0
2016-May-19 03:34N 32°05' W 081°03'0 0.1
2016-May-19 02:33N 32°05' W 081°03'0 0.1
2016-May-19 01:34N 32°05' W 081°03'0 0.0
2016-May-19 00:34N 32°05' W 081°03'0 0.1
2016-May-18 23:33N 32°05' W 081°03'0 0.2
2016-May-18 22:33N 32°05' W 081°03'0 0.2
2016-May-18 21:33N 32°05' W 081°03'0 0.2
2016-May-18 20:33N 32°05' W 081°03'2 1.2
2016-May-18 18:33N 32°05' W 081°06'8 7.6
2016-May-18 17:33N 32°04' W 080°57'4 4.3
2016-May-18 16:33N 32°05' W 081°02'4 4.1
2016-May-18 15:33N 32°06' W 081°07'0 0.0
2016-May-18 14:33N 32°06' W 081°07'0 0.0
2016-May-18 13:33N 32°06' W 081°07'1 1.0
2016-May-18 12:33N 32°05' W 081°06'1 1.4
2016-May-18 11:33N 32°05' W 081°04'0 0.4
2016-May-18 10:33N 32°05' W 081°04'0 0.3
2016-May-18 09:33N 32°05' W 081°04'0 0.1
2016-May-18 08:34N 32°05' W 081°04'0 0.4
2016-May-18 07:33N 32°05' W 081°04'0 0.1
2016-May-18 06:33N 32°05' W 081°04'0 0.3
2016-May-18 05:33N 32°05' W 081°04'0 0.0
2016-May-18 04:33N 32°05' W 081°04'0 0.1
2016-May-18 03:33N 32°05' W 081°04'0 0.1
2016-May-18 02:33N 32°05' W 081°04'0 0.2
2016-May-18 01:21N 32°05' W 081°04'0 0.1
2016-May-18 00:33N 32°05' W 081°04'0 0.1
2016-May-17 23:33N 32°05' W 081°04'0 0.1
2016-May-17 22:33N 32°05' W 081°04'0 0.2
2016-May-17 21:33N 32°05' W 081°04'0 0.1
2016-May-17 20:33N 32°05' W 081°04'0 0.1
2016-May-17 19:33N 32°05' W 081°04'0 0.2
2016-May-17 18:33N 32°05' W 081°04'0 0.1
2016-May-17 17:33N 32°05' W 081°04'0 0.2
2016-May-17 16:33N 32°05' W 081°04'2 1.5
2016-May-17 15:33N 32°05' W 081°06'1 0.8
2016-May-17 14:33N 32°06' W 081°06'0 0.0
2016-May-17 13:33N 32°06' W 081°06'1 0.1
2016-May-17 01:14N 32°05' W 081°06'4 6.2
2016-May-17 00:33N 32°06' W 081°01'8 8.1
2016-May-16 23:33N 32°02' W 080°52'8 7.5
2016-May-16 22:33N 31°60' W 080°44'2 2.0
2016-May-16 21:33N 31°60' W 080°42'7 6.9
2016-May-16 20:33N 32°02' W 080°49'7 7.0
2016-May-16 19:34N 32°04' W 080°57'5 4.9
2016-May-16 18:33N 32°05' W 081°03'0 0.1
2016-May-16 17:33N 32°05' W 081°03'0 0.0
2016-May-16 16:33N 32°05' W 081°03'0 0.0
2016-May-16 15:33N 32°05' W 081°03'  

Dump ship's entire track history